Terminal Aerodrome Forecast
Issued by NWS

Home | Current Version | Previous Version | Text Only | Print | Product List | Glossary On
Versions: 1 2 3 4 5 6 7 8 9 10 11 12
436
FTUS42 KILM 280520
TAFCRE
TAF
KCRE 280520Z 2806/2906 10008KT P6SM SCT040
     FM280900 04004KT P6SM FEW015 SCT040 BKN250
     FM281300 06011KT P6SM VCSH SCT030 BKN080
      TEMPO 2814/2818 5SM SHRA BKN030
     FM281800 09010KT 6SM -SHRA OVC020
     FM290000 06005KT 4SM SHRA OVC020=

USA.gov is the U.S. government's official web portal to all federal, state and local government web resources and services.